Time;durP1;ratioP1;P1;durP2;ratioP2;P2;SDS_P1;SDS_P2;PMS_P1;PMS_P2;Temp;Humidity;BMP_temperature;BMP_pressure;BME280_temperature;BME280_humidity;BME280_pressure;Samples;Min_cycle;Max_cycle;Signal;HPM_P1;HPM_P2
2023/04/24 00:00:28;;;;;;;1.60;0.77;;;13.90;99.90;;;;;;7392098;19;20134;-79
2023/04/24 00:02:56;;;;;;;2.58;0.82;;;14.00;99.90;;;;;;7388931;19;20161;-80
2023/04/24 00:05:22;;;;;;;1.55;0.77;;;14.10;99.90;;;;;;7391077;19;20130;-79
2023/04/24 00:07:48;;;;;;;1.20;0.63;;;14.10;99.90;;;;;;7389485;19;20143;-80
2023/04/24 00:10:14;;;;;;;1.27;0.63;;;14.10;99.90;;;;;;7388446;19;20138;-80
2023/04/24 00:12:39;;;;;;;1.52;0.80;;;14.10;99.90;;;;;;7389077;19;20139;-80
2023/04/24 00:15:06;;;;;;;0.82;0.65;;;14.10;99.90;;;;;;7387591;19;20134;-80
2023/04/24 00:17:32;;;;;;;1.92;0.70;;;14.00;99.90;;;;;;7388190;19;20156;-79
2023/04/24 00:20:04;;;;;;;1.08;0.60;;;14.00;99.90;;;;;;7384718;19;20138;-79
2023/04/24 00:22:30;;;;;;;1.30;0.50;;;14.10;99.90;;;;;;7379467;19;20167;-80
2023/04/24 00:24:56;;;;;;;0.98;0.63;;;14.20;99.90;;;;;;7386481;19;20595;-79
2023/04/24 00:27:22;;;;;;;2.17;0.70;;;14.20;99.90;;;;;;7388122;19;20176;-80
2023/04/24 00:29:48;;;;;;;1.73;0.70;;;14.10;99.90;;;;;;7386179;19;20154;-80
2023/04/24 00:32:14;;;;;;;1.98;0.60;;;14.20;99.90;;;;;;7385359;19;20134;-80
2023/04/24 00:34:40;;;;;;;0.70;0.50;;;14.00;99.90;;;;;;7387433;19;20903;-80
2023/04/24 00:37:06;;;;;;;0.90;0.70;;;14.10;99.90;;;;;;7393426;19;20143;-80
2023/04/24 00:39:32;;;;;;;1.33;0.70;;;14.10;99.90;;;;;;7393470;19;20152;-79
2023/04/24 00:41:58;;;;;;;1.27;0.60;;;14.10;99.90;;;;;;7390612;19;20165;-80
2023/04/24 00:44:24;;;;;;;1.00;0.50;;;14.10;99.90;;;;;;7392503;19;20146;-80
2023/04/24 00:46:54;;;;;;;0.73;0.60;;;13.90;99.90;;;;;;7393329;19;20605;-80
2023/04/24 00:49:23;;;;;;;1.55;0.50;;;13.90;99.90;;;;;;7393355;19;20147;-79
2023/04/24 00:51:51;;;;;;;2.30;0.60;;;14.00;99.90;;;;;;7392034;19;20164;-80
2023/04/24 00:54:18;;;;;;;0.85;0.50;;;14.00;99.90;;;;;;7392960;19;20161;-78
2023/04/24 00:56:44;;;;;;;0.63;0.57;;;14.10;99.90;;;;;;7393981;19;20473;-79
2023/04/24 00:59:12;;;;;;;1.63;0.50;;;14.20;99.90;;;;;;7394050;19;20146;-79
2023/04/24 01:01:41;;;;;;;0.57;0.45;;;14.20;99.90;;;;;;7394214;19;20146;-78
2023/04/24 01:04:09;;;;;;;0.73;0.63;;;14.10;99.90;;;;;;7391925;19;20163;-79
2023/04/24 01:06:41;;;;;;;0.70;0.45;;;14.20;99.90;;;;;;7391511;19;20131;-79
2023/04/24 01:09:10;;;;;;;0.47;0.40;;;14.20;99.90;;;;;;7390415;19;20611;-79
2023/04/24 01:11:37;;;;;;;0.65;0.50;;;14.30;99.90;;;;;;7386269;19;20148;-77
2023/04/24 01:14:03;;;;;;;1.15;0.40;;;14.20;99.90;;;;;;7392381;19;20269;-79
2023/04/24 01:16:29;;;;;;;1.23;0.65;;;14.30;99.90;;;;;;7390979;19;20468;-78
2023/04/24 01:18:54;;;;;;;1.00;0.50;;;14.20;99.90;;;;;;7387762;19;20149;-79
2023/04/24 01:21:23;;;;;;;1.20;0.50;;;14.20;99.90;;;;;;7393640;19;20165;-79
2023/04/24 01:23:49;;;;;;;0.80;0.63;;;14.40;99.90;;;;;;7391680;19;20139;-79
2023/04/24 01:26:16;;;;;;;2.03;0.63;;;14.20;99.90;;;;;;7390509;19;20161;-78
2023/04/24 01:28:42;;;;;;;1.35;0.60;;;14.20;99.90;;;;;;7389286;19;20602;-78
2023/04/24 01:31:08;;;;;;;1.02;0.50;;;14.20;99.90;;;;;;7391435;19;20138;-79
2023/04/24 01:33:34;;;;;;;0.90;0.50;;;14.20;99.90;;;;;;7389610;19;20145;-79
2023/04/24 01:36:01;;;;;;;0.70;0.50;;;14.20;99.90;;;;;;7393004;19;20812;-80
2023/04/24 01:38:27;;;;;;;0.90;0.57;;;14.20;99.90;;;;;;7389838;19;20163;-79
2023/04/24 01:40:53;;;;;;;1.08;0.50;;;14.20;99.90;;;;;;7391713;19;20599;-80
2023/04/24 01:43:19;;;;;;;0.82;0.60;;;14.10;99.90;;;;;;7390455;19;20180;-81
2023/04/24 01:45:44;;;;;;;1.77;0.80;;;14.10;99.90;;;;;;7390394;19;20634;-80
2023/04/24 01:48:12;;;;;;;1.40;0.60;;;14.10;99.90;;;;;;7388535;19;20165;-80
2023/04/24 01:50:37;;;;;;;2.15;0.80;;;14.10;99.90;;;;;;7389285;19;20138;-79
2023/04/24 01:53:03;;;;;;;1.77;0.63;;;14.20;99.90;;;;;;7392864;19;20507;-77
2023/04/24 01:55:29;;;;;;;1.75;0.60;;;14.20;99.90;;;;;;7391513;19;20158;-81
2023/04/24 01:57:56;;;;;;;3.92;0.75;;;14.30;99.90;;;;;;7390579;19;20257;-79
2023/04/24 02:00:22;;;;;;;1.20;0.60;;;14.30;99.90;;;;;;7392124;19;20153;-79
2023/04/24 02:02:48;;;;;;;1.15;0.80;;;14.30;99.90;;;;;;7391726;19;20475;-80
2023/04/24 02:05:14;;;;;;;2.95;0.70;;;14.30;99.90;;;;;;7391292;19;20130;-80
2023/04/24 02:07:40;;;;;;;2.33;0.63;;;14.20;99.90;;;;;;7390704;19;20135;-79
2023/04/24 02:10:07;;;;;;;1.95;0.50;;;14.10;99.90;;;;;;7389304;19;20150;-78
2023/04/24 02:12:32;;;;;;;0.88;0.68;;;14.10;99.90;;;;;;7389000;19;20131;-79
2023/04/24 02:14:58;;;;;;;1.27;0.60;;;14.00;99.90;;;;;;7390829;19;20334;-80
2023/04/24 02:17:24;;;;;;;3.55;0.70;;;14.10;99.90;;;;;;7391281;19;20142;-79
2023/04/24 02:19:50;;;;;;;1.08;0.80;;;14.10;99.90;;;;;;7393130;19;20141;-80
2023/04/24 02:22:16;;;;;;;2.60;0.80;;;14.10;99.90;;;;;;7389516;19;20170;-79
2023/04/24 02:24:42;;;;;;;1.38;0.50;;;14.10;99.90;;;;;;7390760;19;20154;-80
2023/04/24 02:27:07;;;;;;;0.80;0.70;;;13.90;99.90;;;;;;7393234;19;20154;-79
2023/04/24 02:29:34;;;;;;;1.13;0.60;;;13.80;99.90;;;;;;7384711;19;20186;-78
2023/04/24 02:32:00;;;;;;;2.00;0.77;;;14.00;99.90;;;;;;7391146;19;20142;-79
2023/04/24 02:34:26;;;;;;;2.45;0.60;;;14.00;99.90;;;;;;7387843;19;20135;-79
2023/04/24 02:36:53;;;;;;;1.60;0.70;;;14.10;99.90;;;;;;7388377;19;20166;-80
2023/04/24 02:39:19;;;;;;;2.70;0.60;;;14.10;99.90;;;;;;7392755;19;20138;-79
2023/04/24 02:41:45;;;;;;;0.68;0.60;;;14.10;99.90;;;;;;7388350;19;20161;-79
2023/04/24 02:44:11;;;;;;;1.15;0.60;;;14.10;99.90;;;;;;7393788;19;20138;-79
2023/04/24 02:46:37;;;;;;;0.68;0.50;;;14.00;99.90;;;;;;7389547;19;20149;-80
2023/04/24 02:49:02;;;;;;;2.70;0.50;;;14.00;99.90;;;;;;7391085;19;20138;-79
2023/04/24 02:51:29;;;;;;;1.00;0.70;;;14.00;99.90;;;;;;7388191;19;20205;-80
2023/04/24 02:53:55;;;;;;;2.35;0.70;;;14.00;99.90;;;;;;7391329;19;20724;-80
2023/04/24 02:56:21;;;;;;;1.30;0.70;;;13.90;99.90;;;;;;7391325;19;20138;-79
2023/04/24 02:58:46;;;;;;;1.75;0.55;;;13.90;99.90;;;;;;7390472;19;20175;-79
2023/04/24 03:01:12;;;;;;;1.45;0.60;;;14.00;99.90;;;;;;7388404;19;20134;-78
2023/04/24 03:03:39;;;;;;;0.75;0.60;;;13.80;99.90;;;;;;7387979;19;20602;-80
2023/04/24 03:06:05;;;;;;;0.52;0.50;;;13.70;99.90;;;;;;7390502;19;20599;-79
2023/04/24 03:08:32;;;;;;;0.57;0.57;;;13.60;99.90;;;;;;7389451;19;20505;-80
2023/04/24 03:10:57;;;;;;;0.50;0.50;;;13.90;99.90;;;;;;7387682;19;20552;-80
2023/04/24 03:13:23;;;;;;;1.15;0.75;;;13.90;99.90;;;;;;7391830;19;20134;-80
2023/04/24 03:15:49;;;;;;;0.93;0.75;;;13.90;99.90;;;;;;7391469;19;20139;-79
2023/04/24 03:18:15;;;;;;;1.25;0.70;;;13.90;99.90;;;;;;7390566;19;21018;-80
2023/04/24 03:20:41;;;;;;;0.70;0.55;;;13.80;99.90;;;;;;7389814;19;20130;-79
2023/04/24 03:23:06;;;;;;;1.33;0.63;;;13.90;99.90;;;;;;7389662;19;20150;-82
2023/04/24 03:25:32;;;;;;;1.17;0.82;;;13.90;99.90;;;;;;7391421;19;20134;-81
2023/04/24 03:27:58;;;;;;;2.63;0.73;;;13.90;99.90;;;;;;7390495;19;20134;-79
2023/04/24 03:30:23;;;;;;;1.17;0.70;;;13.80;99.90;;;;;;7387460;19;20131;-81
2023/04/24 03:32:49;;;;;;;0.70;0.50;;;13.90;99.90;;;;;;7389436;19;20133;-80
2023/04/24 03:35:17;;;;;;;1.38;0.70;;;13.80;99.90;;;;;;7387756;19;20139;-80
2023/04/24 03:37:43;;;;;;;0.90;0.70;;;13.80;99.90;;;;;;7384199;19;20154;-81
2023/04/24 03:40:09;;;;;;;0.50;0.50;;;13.80;99.90;;;;;;7388141;19;20151;-81
2023/04/24 03:42:35;;;;;;;1.38;0.73;;;13.70;99.90;;;;;;7385311;19;20164;-81
2023/04/24 03:45:01;;;;;;;0.75;0.70;;;13.70;99.90;;;;;;7390399;19;20155;-82
2023/04/24 03:47:26;;;;;;;0.50;0.50;;;13.60;99.90;;;;;;7389599;19;20503;-81
2023/04/24 03:49:53;;;;;;;2.85;0.70;;;13.70;99.90;;;;;;7389422;19;20242;-81
2023/04/24 03:52:19;;;;;;;3.22;0.73;;;13.50;99.90;;;;;;7388990;19;20603;-79
2023/04/24 03:54:45;;;;;;;2.13;0.70;;;13.60;99.90;;;;;;7387764;19;20145;-79
2023/04/24 03:57:10;;;;;;;0.73;0.60;;;13.40;99.90;;;;;;7388093;19;20146;-80
2023/04/24 03:59:36;;;;;;;1.58;0.73;;;13.50;99.90;;;;;;7389601;19;20511;-79
2023/04/24 04:02:02;;;;;;;0.63;0.52;;;13.50;99.90;;;;;;7391047;19;20599;-80
2023/04/24 04:04:27;;;;;;;0.68;0.50;;;13.40;99.90;;;;;;7388332;19;20138;-81
2023/04/24 04:06:53;;;;;;;1.40;0.73;;;13.50;99.90;;;;;;7386752;19;20669;-79
2023/04/24 04:09:19;;;;;;;0.50;0.50;;;13.60;99.90;;;;;;7391241;19;20146;-79
2023/04/24 04:11:45;;;;;;;1.35;0.70;;;13.60;99.90;;;;;;7393812;19;20472;-80
2023/04/24 04:14:10;;;;;;;1.30;0.77;;;13.70;99.90;;;;;;7393610;19;20626;-79
2023/04/24 04:16:36;;;;;;;0.93;0.60;;;13.60;99.90;;;;;;7392440;19;20146;-80
2023/04/24 04:19:02;;;;;;;1.48;0.50;;;13.50;99.90;;;;;;7393773;19;20276;-77
2023/04/24 04:21:29;;;;;;;1.42;0.80;;;13.70;99.90;;;;;;7392136;19;20146;-79
2023/04/24 04:23:54;;;;;;;1.70;1.10;;;13.60;99.90;;;;;;7395077;19;20138;-78
2023/04/24 04:26:21;;;;;;;1.20;0.80;;;13.60;99.90;;;;;;7392852;19;20209;-78
2023/04/24 04:28:47;;;;;;;0.57;0.57;;;13.70;99.90;;;;;;7393289;19;20151;-78
2023/04/24 04:31:13;;;;;;;0.57;0.57;;;13.50;99.90;;;;;;7390959;19;20158;-79
2023/04/24 04:33:39;;;;;;;0.93;0.60;;;13.40;99.90;;;;;;7393513;19;20168;-79
2023/04/24 04:36:05;;;;;;;0.80;0.60;;;13.30;99.90;;;;;;7392534;19;20139;-79
2023/04/24 04:38:31;;;;;;;1.60;0.55;;;13.40;99.90;;;;;;7391731;19;20147;-79
2023/04/24 04:40:57;;;;;;;0.77;0.63;;;13.30;99.90;;;;;;7392775;19;20580;-79
2023/04/24 04:43:24;;;;;;;2.10;0.60;;;13.20;99.90;;;;;;7391751;19;20147;-79
2023/04/24 04:45:51;;;;;;;0.77;0.50;;;13.00;99.90;;;;;;7393707;19;20159;-80
2023/04/24 04:48:17;;;;;;;0.50;0.50;;;12.90;99.90;;;;;;7392491;19;20138;-78
2023/04/24 04:50:43;;;;;;;0.73;0.68;;;13.00;99.90;;;;;;7393791;19;20135;-80
2023/04/24 04:53:09;;;;;;;1.45;0.65;;;12.80;99.90;;;;;;7393738;19;20717;-80
2023/04/24 04:55:35;;;;;;;0.50;0.50;;;12.70;99.90;;;;;;7393212;19;20161;-77
2023/04/24 04:58:01;;;;;;;0.50;0.50;;;12.80;99.90;;;;;;7394246;19;20192;-78
2023/04/24 05:00:28;;;;;;;0.60;0.60;;;13.00;99.90;;;;;;7392988;19;20217;-79
2023/04/24 05:02:54;;;;;;;0.50;0.50;;;13.00;99.90;;;;;;7392973;19;20139;-79
2023/04/24 05:05:20;;;;;;;1.90;0.87;;;13.10;99.90;;;;;;7395990;19;20194;-78
2023/04/24 05:07:46;;;;;;;1.50;1.05;;;13.20;99.90;;;;;;7393319;19;20134;-78
2023/04/24 05:10:11;;;;;;;0.80;0.80;;;13.10;99.90;;;;;;7392629;19;20202;-78
2023/04/24 05:12:37;;;;;;;1.40;0.93;;;13.00;99.90;;;;;;7392484;19;20206;-78
2023/04/24 05:15:05;;;;;;;1.58;0.95;;;13.10;99.90;;;;;;7392231;19;20134;-79
2023/04/24 05:17:31;;;;;;;1.23;0.85;;;13.10;99.90;;;;;;7391089;19;20609;-79
2023/04/24 05:19:57;;;;;;;0.80;0.60;;;13.00;99.90;;;;;;7391444;19;20154;-78
2023/04/24 05:22:23;;;;;;;0.60;0.60;;;12.80;99.90;;;;;;7389309;19;20131;-78
2023/04/24 05:24:49;;;;;;;0.70;0.70;;;12.90;99.90;;;;;;7393788;19;20134;-78
2023/04/24 05:27:15;;;;;;;1.10;0.75;;;13.10;99.90;;;;;;7392822;19;20737;-78
2023/04/24 05:29:41;;;;;;;1.00;0.67;;;13.00;99.90;;;;;;7390142;19;20149;-79
2023/04/24 05:32:07;;;;;;;2.05;1.75;;;13.00;99.90;;;;;;7386921;19;20143;-81
2023/04/24 05:34:32;;;;;;;1.85;1.27;;;13.00;99.90;;;;;;7391078;19;20127;-80
2023/04/24 05:36:58;;;;;;;1.60;1.02;;;13.00;99.90;;;;;;7388208;19;20142;-79
2023/04/24 05:39:27;;;;;;;6.70;3.88;;;13.00;99.90;;;;;;7390654;19;20130;-79
2023/04/24 05:41:53;;;;;;;1.02;0.80;;;13.00;99.90;;;;;;7388390;19;20171;-79
2023/04/24 05:44:18;;;;;;;2.10;0.90;;;12.90;99.90;;;;;;7392013;19;20624;-79
2023/04/24 05:46:44;;;;;;;0.68;0.68;;;13.00;99.90;;;;;;7391560;19;20626;-81
2023/04/24 05:49:10;;;;;;;0.85;0.73;;;13.10;99.90;;;;;;7389425;19;20134;-81
2023/04/24 05:51:36;;;;;;;0.82;0.82;;;13.20;99.90;;;;;;7390481;19;20131;-81
2023/04/24 05:54:03;;;;;;;1.77;1.00;;;13.30;99.90;;;;;;7389347;19;20134;-79
2023/04/24 05:56:29;;;;;;;1.02;0.80;;;13.40;99.90;;;;;;7392035;19;20470;-80
2023/04/24 05:58:55;;;;;;;1.10;0.90;;;13.30;99.90;;;;;;7389128;19;20627;-79
2023/04/24 06:01:21;;;;;;;1.08;0.98;;;13.30;99.90;;;;;;7391653;19;20134;-78
2023/04/24 06:03:47;;;;;;;1.85;1.10;;;13.20;99.90;;;;;;7389796;19;20150;-77
2023/04/24 06:06:12;;;;;;;1.05;0.85;;;13.20;99.90;;;;;;7390032;19;20662;-77
2023/04/24 06:08:38;;;;;;;0.80;0.80;;;13.20;99.90;;;;;;7389671;19;20149;-78
2023/04/24 06:11:04;;;;;;;1.23;1.00;;;13.30;99.90;;;;;;7389301;19;20134;-77
2023/04/24 06:13:30;;;;;;;3.15;1.98;;;13.20;99.90;;;;;;7388024;19;20126;-77
2023/04/24 06:15:56;;;;;;;2.03;1.08;;;13.10;99.90;;;;;;7389981;19;20135;-78
2023/04/24 06:18:21;;;;;;;1.00;1.00;;;13.20;99.90;;;;;;7389040;19;20135;-77
2023/04/24 06:20:47;;;;;;;1.77;0.90;;;13.30;99.90;;;;;;7389312;19;20258;-79
2023/04/24 06:23:13;;;;;;;1.33;0.80;;;13.10;99.90;;;;;;7391376;19;20587;-79
2023/04/24 06:25:39;;;;;;;2.08;1.80;;;13.20;99.90;;;;;;7387337;19;20545;-79
2023/04/24 06:28:05;;;;;;;1.70;1.60;;;13.30;99.90;;;;;;7385778;19;20146;-79
2023/04/24 06:30:31;;;;;;;1.55;1.40;;;13.40;99.90;;;;;;7386352;19;20142;-78
2023/04/24 06:32:57;;;;;;;1.15;1.05;;;13.40;99.90;;;;;;7385886;19;20202;-77
2023/04/24 06:35:23;;;;;;;1.13;0.95;;;13.40;99.90;;;;;;7391262;19;20202;-78
2023/04/24 06:37:48;;;;;;;1.40;0.90;;;13.50;99.90;;;;;;7388954;19;20122;-78
2023/04/24 06:40:15;;;;;;;1.92;0.93;;;13.80;99.90;;;;;;7388745;19;20138;-79
2023/04/24 06:42:40;;;;;;;1.17;0.80;;;14.00;99.90;;;;;;7384716;19;20212;-79
2023/04/24 06:45:07;;;;;;;2.28;2.08;;;14.30;99.90;;;;;;7388847;19;20442;-78
2023/04/24 06:47:34;;;;;;;3.05;1.23;;;14.50;99.90;;;;;;7397381;19;20460;-76
2023/04/24 06:50:00;;;;;;;1.60;1.00;;;15.50;99.90;;;;;;7388601;19;20135;-79
2023/04/24 06:52:26;;;;;;;1.10;0.95;;;17.10;99.90;;;;;;7388679;19;20142;-79
2023/04/24 06:54:52;;;;;;;3.42;1.17;;;17.90;99.90;;;;;;7387921;19;20246;-78
2023/04/24 06:57:18;;;;;;;1.42;1.20;;;17.70;99.90;;;;;;7389026;19;20143;-78
2023/04/24 06:59:45;;;;;;;1.02;0.85;;;18.30;99.90;;;;;;7389279;19;20142;-78
2023/04/24 07:02:10;;;;;;;3.88;2.53;;;18.90;99.90;;;;;;7387643;19;20146;-80
2023/04/24 07:04:36;;;;;;;1.50;1.10;;;18.60;99.90;;;;;;7389701;19;20174;-79
2023/04/24 07:07:02;;;;;;;1.48;0.85;;;18.60;99.90;;;;;;7389876;19;20158;-80
2023/04/24 07:09:28;;;;;;;1.65;0.93;;;17.80;99.90;;;;;;7392253;19;20151;-79
2023/04/24 07:11:54;;;;;;;1.42;1.00;;;17.40;99.90;;;;;;7390157;19;20139;-78
2023/04/24 07:14:20;;;;;;;1.30;1.00;;;16.00;99.90;;;;;;7389906;19;20142;-79
2023/04/24 07:16:46;;;;;;;1.50;0.95;;;15.70;99.90;;;;;;7390033;19;20547;-80
2023/04/24 07:19:13;;;;;;;1.63;1.00;;;15.50;99.90;;;;;;7388454;19;20151;-78
2023/04/24 07:21:39;;;;;;;1.17;0.90;;;15.20;99.90;;;;;;7386517;19;20155;-78
2023/04/24 07:24:09;;;;;;;1.13;1.02;;;14.80;99.90;;;;;;7388407;19;20139;-80
2023/04/24 07:26:36;;;;;;;1.15;0.98;;;14.60;99.90;;;;;;7387646;19;20147;-76
2023/04/24 07:29:02;;;;;;;2.67;1.25;;;14.40;99.90;;;;;;7391541;19;20139;-78
2023/04/24 07:31:28;;;;;;;3.30;1.10;;;14.40;99.90;;;;;;7386771;19;20137;-80
2023/04/24 07:33:57;;;;;;;1.45;1.10;;;14.10;99.90;;;;;;7388091;19;20130;-81
2023/04/24 07:36:24;;;;;;;2.90;1.10;;;14.20;99.90;;;;;;7388407;19;20206;-80
2023/04/24 07:38:50;;;;;;;1.35;0.90;;;14.40;99.90;;;;;;7387096;19;20161;-81
2023/04/24 07:41:15;;;;;;;1.20;1.10;;;14.80;99.90;;;;;;7386102;19;20169;-79
2023/04/24 07:43:42;;;;;;;2.40;1.15;;;15.80;99.90;;;;;;7387000;19;20138;-80
2023/04/24 07:46:08;;;;;;;2.72;1.15;;;16.80;99.90;;;;;;7387373;19;20678;-81
2023/04/24 07:48:34;;;;;;;1.58;0.90;;;17.60;99.90;;;;;;7387182;19;20466;-81
2023/04/24 07:51:00;;;;;;;1.15;0.95;;;17.70;99.90;;;;;;7384706;19;20162;-80
2023/04/24 07:53:26;;;;;;;2.08;1.08;;;17.10;99.90;;;;;;7386071;19;20474;-79
2023/04/24 07:55:52;;;;;;;1.67;1.25;;;16.40;99.90;;;;;;7387430;19;20143;-80
2023/04/24 07:58:17;;;;;;;1.02;0.80;;;15.60;99.90;;;;;;7391221;19;20141;-80
2023/04/24 08:00:45;;;;;;;1.67;0.93;;;15.30;99.90;;;;;;7383107;19;20122;-79
2023/04/24 08:03:12;;;;;;;2.53;1.00;;;15.40;99.90;;;;;;7387592;19;20149;-79
2023/04/24 08:05:38;;;;;;;2.15;0.90;;;15.00;99.90;;;;;;7386344;19;20759;-78
2023/04/24 08:08:05;;;;;;;2.30;0.73;;;14.90;99.90;;;;;;7386665;19;20135;-77
2023/04/24 08:10:31;;;;;;;2.30;1.38;;;14.40;99.90;;;;;;7386219;19;20228;-79
2023/04/24 08:12:56;;;;;;;1.60;1.20;;;14.40;99.90;;;;;;7388699;19;20489;-79
2023/04/24 08:15:22;;;;;;;0.93;0.90;;;14.30;99.90;;;;;;7382408;19;20150;-76
2023/04/24 08:17:48;;;;;;;1.48;1.10;;;14.20;99.90;;;;;;7385210;19;20135;-77
2023/04/24 08:20:14;;;;;;;2.08;0.80;;;14.10;99.90;;;;;;7388864;19;20134;-78
2023/04/24 08:22:43;;;;;;;1.67;1.10;;;14.10;99.90;;;;;;7384738;19;20157;-77
2023/04/24 08:25:10;;;;;;;1.17;0.80;;;14.30;99.90;;;;;;7388707;19;20131;-78
2023/04/24 08:27:38;;;;;;;1.35;0.85;;;14.50;99.90;;;;;;7385022;19;20170;-79
2023/04/24 08:30:05;;;;;;;3.00;0.90;;;14.40;99.90;;;;;;7385074;19;20179;-79
2023/04/24 08:32:31;;;;;;;2.28;1.10;;;14.60;99.90;;;;;;7384701;19;20589;-78
2023/04/24 08:34:58;;;;;;;1.00;0.90;;;14.80;99.90;;;;;;7383492;19;20146;-79
2023/04/24 08:37:25;;;;;;;2.38;1.15;;;14.80;99.90;;;;;;7382736;19;20522;-79
2023/04/24 08:39:51;;;;;;;2.58;1.50;;;14.70;99.90;;;;;;7385425;19;20159;-79
2023/04/24 08:42:19;;;;;;;3.15;1.67;;;14.50;99.90;;;;;;7382587;19;20158;-79
2023/04/24 08:44:45;;;;;;;1.90;1.20;;;14.60;99.90;;;;;;7380513;19;20170;-77
2023/04/24 08:47:12;;;;;;;2.55;1.08;;;14.40;99.90;;;;;;7385036;19;20246;-79
2023/04/24 08:49:38;;;;;;;1.90;1.08;;;14.50;99.90;;;;;;7385241;19;20506;-76
2023/04/24 08:52:08;;;;;;;6.50;4.05;;;14.30;99.90;;;;;;7385321;19;20165;-77
2023/04/24 08:54:35;;;;;;;3.25;1.73;;;14.00;99.90;;;;;;7384709;19;20154;-76
2023/04/24 08:57:03;;;;;;;1.42;0.90;;;13.90;99.90;;;;;;7391489;19;20188;-74
2023/04/24 08:59:33;;;;;;;2.33;1.48;;;13.70;99.90;;;;;;7394412;19;20170;-77
2023/04/24 09:02:00;;;;;;;3.03;1.25;;;13.90;99.90;;;;;;7392171;19;20712;-76
2023/04/24 09:04:27;;;;;;;2.30;0.88;;;14.20;99.90;;;;;;7388185;19;20246;-77
2023/04/24 09:06:58;;;;;;;1.38;1.10;;;14.50;99.90;;;;;;7389747;19;20131;-78
2023/04/24 09:09:26;;;;;;;2.17;1.17;;;14.50;99.90;;;;;;7388199;19;20190;-76
2023/04/24 09:11:55;;;;;;;2.63;1.10;;;14.40;99.90;;;;;;7387683;19;20127;-75
2023/04/24 09:14:24;;;;;;;2.20;1.10;;;14.40;99.90;;;;;;7394589;19;20607;-75
2023/04/24 09:16:51;;;;;;;2.08;1.00;;;14.00;99.90;;;;;;7390580;19;20212;-77
2023/04/24 09:19:17;;;;;;;2.55;1.73;;;14.00;99.90;;;;;;7390954;19;20151;-78
2023/04/24 09:21:46;;;;;;;4.47;2.10;;;13.90;99.90;;;;;;7393037;19;20165;-77
2023/04/24 09:24:24;;;;;;;0.85;0.75;;;13.80;99.90;;;;;;7390966;19;20173;-79
2023/04/24 09:26:58;;;;;;;3.90;1.35;;;13.70;99.90;;;;;;7391006;19;20122;-77
2023/04/24 09:29:26;;;;;;;3.47;2.00;;;13.60;99.90;;;;;;7390329;19;20130;-76
2023/04/24 09:31:51;;;;;;;1.38;1.10;;;13.70;99.90;;;;;;7388574;19;20119;-76
2023/04/24 09:34:25;;;;;;;1.38;0.90;;;13.70;99.90;;;;;;7392688;19;20130;-78
2023/04/24 09:36:53;;;;;;;2.03;1.10;;;13.50;99.90;;;;;;7391212;19;20126;-76
2023/04/24 09:39:22;;;;;;;1.30;1.00;;;13.50;99.90;;;;;;7393089;19;20126;-76
2023/04/24 09:41:50;;;;;;;2.70;1.13;;;13.00;99.90;;;;;;7390544;19;20232;-77
2023/04/24 09:44:22;;;;;;;1.80;1.30;;;13.10;99.90;;;;;;7393269;19;20162;-76
2023/04/24 09:46:57;;;;;;;2.55;1.65;;;13.40;99.90;;;;;;7391163;19;20852;-77
2023/04/24 09:49:28;;;;;;;1.40;1.20;;;13.40;99.90;;;;;;7390946;19;20126;-75
2023/04/24 09:52:10;;;;;;;1.83;1.08;;;13.70;99.90;;;;;;7388312;19;20153;-76
2023/04/24 09:54:37;;;;;;;4.32;2.67;;;14.00;99.90;;;;;;7388604;19;20162;-77
2023/04/24 09:57:03;;;;;;;1.90;1.30;;;14.10;99.90;;;;;;7390160;19;20181;-76
2023/04/24 09:59:29;;;;;;;2.15;1.17;;;14.10;99.90;;;;;;7389545;19;20552;-76
2023/04/24 10:01:56;;;;;;;0.80;0.80;;;13.90;99.90;;;;;;7390078;19;20241;-77
2023/04/24 10:04:24;;;;;;;2.47;1.23;;;14.10;99.90;;;;;;7390088;19;20623;-78
2023/04/24 10:06:52;;;;;;;0.90;0.80;;;14.10;99.90;;;;;;7392083;19;20139;-75
2023/04/24 10:09:20;;;;;;;2.25;1.95;;;13.80;99.90;;;;;;7393575;19;20191;-76
2023/04/24 10:11:48;;;;;;;1.45;0.80;;;13.80;99.90;;;;;;7390799;19;20164;-77
2023/04/24 10:14:16;;;;;;;1.40;0.63;;;13.90;99.90;;;;;;7393282;19;20138;-77
2023/04/24 10:16:42;;;;;;;1.48;0.85;;;14.00;99.90;;;;;;7391016;19;20607;-78
2023/04/24 10:19:10;;;;;;;1.38;1.02;;;14.20;99.90;;;;;;7389745;19;20154;-77
2023/04/24 10:21:42;;;;;;;1.67;1.00;;;14.30;99.90;;;;;;7394452;19;20147;-76
2023/04/24 10:24:08;;;;;;;2.83;1.05;;;14.50;99.90;;;;;;7393820;19;20167;-79
2023/04/24 10:26:35;;;;;;;1.70;0.80;;;14.70;99.90;;;;;;7391115;19;20139;-78
2023/04/24 10:29:01;;;;;;;0.85;0.60;;;15.00;99.90;;;;;;7392456;19;20134;-76
2023/04/24 10:31:31;;;;;;;1.38;0.75;;;15.30;99.90;;;;;;7395151;19;20465;-78
2023/04/24 10:33:59;;;;;;;1.27;0.98;;;15.30;99.90;;;;;;7390789;19;20146;-78
2023/04/24 10:36:27;;;;;;;0.70;0.60;;;15.60;99.90;;;;;;7392373;19;20601;-79
2023/04/24 10:38:56;;;;;;;1.58;0.90;;;15.40;99.90;;;;;;7390266;19;20134;-76
2023/04/24 10:41:25;;;;;;;1.30;0.90;;;14.90;99.90;;;;;;7388661;19;20153;-77
2023/04/24 10:44:13;;;;;;;0.82;0.82;;;14.70;99.90;;;;;;7390151;19;20129;-77
2023/04/24 10:46:43;;;;;;;2.83;0.80;;;14.70;99.90;;;;;;7391652;19;20206;-77
2023/04/24 10:49:08;;;;;;;2.75;1.35;;;14.70;99.90;;;;;;7392644;19;20456;-77
2023/04/24 10:51:43;;;;;;;1.13;0.90;;;14.50;99.90;;;;;;7387830;19;20141;-78
2023/04/24 10:54:28;;;;;;;0.70;0.60;;;14.50;99.90;;;;;;7390478;19;20209;-76
2023/04/24 10:57:23;;;;;;;3.40;1.60;;;14.30;99.90;;;;;;7396350;19;20175;-77
2023/04/24 11:00:13;;;;;;;2.47;0.93;;;14.40;99.90;;;;;;7393178;19;20143;-77
2023/04/24 11:02:43;;;;;;;5.18;2.20;;;14.60;99.90;;;;;;7387920;19;20143;-78
2023/04/24 11:05:10;;;;;;;2.10;1.00;;;14.60;99.90;;;;;;7387875;19;20138;-77
2023/04/24 11:08:34;;;;;;;1.60;0.80;;;14.60;99.90;;;;;;7388223;19;20146;-77
2023/04/24 11:11:10;;;;;;;1.88;0.90;;;14.40;99.90;;;;;;7380255;19;20211;-77
2023/04/24 11:13:55;;;;;;;1.67;1.40;;;14.60;99.90;;;;;;7384882;19;20171;-77
2023/04/24 11:16:26;;;;;;;4.38;2.80;;;14.30;99.90;;;;;;7386512;19;20146;-78
2023/04/24 11:19:00;;;;;;;1.98;1.17;;;14.20;99.90;;;;;;7387752;19;20138;-79
2023/04/24 11:21:47;;;;;;;2.10;1.00;;;14.40;99.90;;;;;;7393906;19;20127;-78
2023/04/24 11:24:39;;;;;;;1.75;1.02;;;14.40;99.90;;;;;;7386997;19;20217;-79
2023/04/24 11:27:19;;;;;;;3.95;1.20;;;14.60;99.90;;;;;;7389056;19;20146;-78
2023/04/24 11:29:54;;;;;;;2.72;1.00;;;14.70;99.90;;;;;;7383425;19;20214;-79
2023/04/24 11:32:36;;;;;;;3.15;1.20;;;14.80;99.90;;;;;;7379974;19;20505;-77
2023/04/24 11:35:21;;;;;;;0.77;0.70;;;14.80;99.90;;;;;;7383967;19;20471;-77
2023/04/24 11:37:52;;;;;;;0.95;0.73;;;14.90;99.90;;;;;;7386935;19;20134;-76
2023/04/24 11:40:20;;;;;;;1.23;0.90;;;14.80;99.90;;;;;;7384598;19;20138;-77
2023/04/24 11:42:47;;;;;;;2.35;1.20;;;15.10;99.90;;;;;;7386892;19;20500;-78
2023/04/24 11:45:14;;;;;;;1.23;0.80;;;15.30;99.90;;;;;;7384620;19;20545;-77
2023/04/24 11:47:40;;;;;;;1.52;0.80;;;15.30;99.90;;;;;;7384086;19;20985;-77
2023/04/24 11:50:12;;;;;;;1.48;1.15;;;15.10;99.90;;;;;;7387886;19;20230;-79
2023/04/24 11:52:40;;;;;;;0.80;0.70;;;14.80;99.90;;;;;;7387657;19;20134;-78
2023/04/24 11:55:29;;;;;;;1.00;0.73;;;14.40;99.90;;;;;;7385757;19;20154;-77
2023/04/24 11:57:57;;;;;;;1.80;0.90;;;14.10;99.90;;;;;;7385426;19;20185;-79
2023/04/24 12:00:25;;;;;;;2.55;1.08;;;14.20;99.90;;;;;;7387147;19;20177;-77
2023/04/24 12:03:03;;;;;;;0.98;0.88;;;14.30;99.90;;;;;;7386562;19;20503;-79
2023/04/24 12:05:31;;;;;;;1.38;0.80;;;14.10;99.90;;;;;;7387771;19;20145;-78
2023/04/24 12:07:57;;;;;;;2.05;0.90;;;14.20;99.90;;;;;;7386756;19;20143;-78
2023/04/24 12:10:25;;;;;;;1.40;0.70;;;14.40;99.90;;;;;;7385948;19;20603;-82
2023/04/24 12:12:51;;;;;;;1.88;1.10;;;14.80;99.90;;;;;;7391721;19;20131;-79
2023/04/24 12:15:19;;;;;;;0.98;0.77;;;15.10;99.90;;;;;;7387220;19;21369;-80
2023/04/24 12:17:45;;;;;;;3.42;1.15;;;15.20;99.90;;;;;;7386425;19;20146;-78
2023/04/24 12:20:12;;;;;;;2.15;1.00;;;15.20;99.90;;;;;;7389223;19;20150;-78
2023/04/24 12:22:55;;;;;;;1.20;0.88;;;14.90;99.90;;;;;;7386690;19;20178;-79
2023/04/24 12:25:26;;;;;;;1.92;0.88;;;14.70;99.90;;;;;;7386899;19;20149;-78
2023/04/24 12:28:11;;;;;;;3.25;0.90;;;14.60;99.90;;;;;;7389053;19;20479;-80
2023/04/24 12:30:48;;;;;;;0.85;0.70;;;14.60;99.90;;;;;;7388512;19;20598;-79
2023/04/24 12:33:20;;;;;;;1.58;0.90;;;14.60;99.90;;;;;;7396101;19;20146;-79
2023/04/24 12:35:53;;;;;;;1.73;1.00;;;14.60;99.90;;;;;;7394686;19;20160;-77
2023/04/24 12:38:24;;;;;;;1.55;0.90;;;14.50;99.90;;;;;;7395490;19;21383;-76
2023/04/24 12:41:06;;;;;;;3.17;1.00;;;14.70;99.90;;;;;;7392900;19;20173;-80
2023/04/24 12:43:33;;;;;;;1.02;0.90;;;14.50;99.90;;;;;;7395729;19;20505;-79
2023/04/24 12:45:59;;;;;;;1.80;1.00;;;14.60;99.90;;;;;;7394127;19;20395;-81
2023/04/24 12:48:31;;;;;;;1.00;0.90;;;14.80;99.90;;;;;;7392620;19;20174;-80
2023/04/24 12:51:03;;;;;;;1.00;0.90;;;14.80;99.90;;;;;;7393306;19;20491;-78